createdAt,value
2022-10-22T00:02:14.937Z,100504.75
2022-10-22T00:04:41.233Z,100502.06
2022-10-22T00:07:08.135Z,100494.78
2022-10-22T00:09:34.476Z,100502.88
2022-10-22T00:12:00.759Z,100510.38
2022-10-22T00:14:27.039Z,100501.22
2022-10-22T00:16:53.501Z,100501.22
2022-10-22T00:19:19.733Z,100490.47
2022-10-22T00:21:46.003Z,100488.00
2022-10-22T00:24:12.255Z,100487.22
2022-10-22T00:26:38.589Z,100498.78
2022-10-22T00:29:04.853Z,100493.16
2022-10-22T00:31:31.673Z,100499.59
2022-10-22T00:33:57.995Z,100511.16
2022-10-22T00:36:24.369Z,100523.00
2022-10-22T00:38:50.896Z,100523.00
2022-10-22T00:41:17.256Z,100520.06
2022-10-22T00:43:43.731Z,100513.06
2022-10-22T00:46:10.071Z,100512.81
2022-10-22T00:48:36.342Z,100491.75
2022-10-22T00:51:02.575Z,100497.16
2022-10-22T00:53:28.852Z,100494.47
2022-10-22T00:55:55.225Z,100497.16
2022-10-22T00:58:21.928Z,100512.22
2022-10-22T01:00:48.312Z,100502.53
2022-10-22T01:03:16.266Z,100497.16
2022-10-22T01:05:42.756Z,100497.16
2022-10-22T01:08:09.329Z,100490.94
2022-10-22T01:10:35.653Z,100489.06
2022-10-22T01:13:02.507Z,100480.19
2022-10-22T01:15:28.756Z,100478.31
2022-10-22T01:17:55.135Z,100468.63
2022-10-22T01:20:21.489Z,100478.31
2022-10-22T01:22:47.845Z,100468.63
2022-10-22T01:25:14.413Z,100464.03
2022-10-22T01:27:40.999Z,100469.41
2022-10-22T01:30:07.496Z,100467.78
2022-10-22T01:32:33.778Z,100464.03
2022-10-22T01:34:59.989Z,100457.88
2022-10-22T01:37:26.293Z,100455.97
2022-10-22T01:39:52.669Z,100452.47
2022-10-22T01:42:19.243Z,100458.09
2022-10-22T01:44:45.557Z,100453.53
2022-10-22T01:47:11.984Z,100457.25
2022-10-22T01:49:38.232Z,100461.63
2022-10-22T01:52:04.817Z,100465.09
2022-10-22T01:54:31.370Z,100476.91
2022-10-22T01:56:57.670Z,100482.31
2022-10-22T01:59:23.949Z,100488.50
2022-10-22T02:01:50.216Z,100496.81
2022-10-22T02:04:16.582Z,100501.13
2022-10-22T02:06:42.871Z,100499.28
2022-10-22T02:09:09.280Z,100493.28
2022-10-22T02:11:35.557Z,100503.81
2022-10-22T02:14:01.807Z,100496.81
2022-10-22T02:16:28.177Z,100508.38
2022-10-22T02:18:54.533Z,100497.63
2022-10-22T02:21:20.969Z,100515.66
2022-10-22T02:23:47.247Z,100521.81
2022-10-22T02:26:13.529Z,100528.25
2022-10-22T02:28:40.119Z,100515.88
2022-10-22T02:31:06.441Z,100506.75
2022-10-22T02:33:32.733Z,100490.59
2022-10-22T02:35:59.124Z,100478.00
2022-10-22T02:38:25.589Z,100479.00
2022-10-22T02:40:52.236Z,100482.53
2022-10-22T02:43:18.553Z,100475.28
2022-10-22T02:45:44.868Z,100465.84
2022-10-22T02:48:11.314Z,100467.47
2022-10-22T02:50:37.773Z,100471.22
2022-10-22T02:53:04.340Z,100487.09
2022-10-22T02:55:30.639Z,100487.91
2022-10-22T02:57:56.929Z,100489.78
2022-10-22T03:00:23.255Z,100490.84
2022-10-22T03:02:49.518Z,100490.03
2022-10-22T03:05:15.961Z,100486.28
2022-10-22T03:07:42.715Z,100488.16
2022-10-22T03:10:09.397Z,100478.22
2022-10-22T03:12:35.629Z,100475.75
2022-10-22T03:15:01.904Z,100475.53
2022-10-22T03:17:28.275Z,100473.91
2022-10-22T03:19:54.549Z,100467.47
2022-10-22T03:22:21.315Z,100467.47
2022-10-22T03:24:47.567Z,100472.00
2022-10-22T03:27:13.804Z,100472.00
2022-10-22T03:29:40.352Z,100470.38
2022-10-22T03:32:06.615Z,100474.94
2022-10-22T03:34:33.001Z,100484.66
2022-10-22T03:36:59.496Z,100487.34
2022-10-22T03:39:25.868Z,100484.91
2022-10-22T03:41:52.140Z,100491.06
2022-10-22T03:44:18.460Z,100488.38
2022-10-22T03:46:44.833Z,100489.22
2022-10-22T03:49:11.156Z,100488.38
2022-10-22T03:51:37.710Z,100496.44
2022-10-22T03:54:03.967Z,100500.19
2022-10-22T03:56:30.237Z,100496.44
2022-10-22T03:58:56.477Z,100495.66
2022-10-22T04:01:22.815Z,100505.59
2022-10-22T04:03:49.114Z,100509.91
2022-10-22T04:06:15.633Z,100507.22
2022-10-22T04:08:41.952Z,100501.03
2022-10-22T04:11:08.352Z,100504.53
2022-10-22T04:13:34.642Z,100513.66
2022-10-22T04:16:00.889Z,100517.97
2022-10-22T04:18:27.290Z,100517.41
2022-10-22T04:20:53.674Z,100517.16
2022-10-22T04:23:19.971Z,100518.22
2022-10-22T04:25:46.227Z,100513.88
2022-10-22T04:28:12.719Z,100513.66
2022-10-22T04:30:38.956Z,100510.97
2022-10-22T04:33:05.279Z,100508.28
2022-10-22T04:35:31.535Z,100496.72
2022-10-22T04:37:57.817Z,100502.09
2022-10-22T04:40:24.065Z,100499.41
2022-10-22T04:42:50.349Z,100495.88
2022-10-22T04:45:16.784Z,100498.56
2022-10-22T04:47:43.259Z,100494.03
2022-10-22T04:50:09.717Z,100499.63
2022-10-22T04:52:36.687Z,100510.16
2022-10-22T04:55:03.005Z,100499.41
2022-10-22T04:57:29.630Z,100506.66
2022-10-22T04:59:56.009Z,100508.28
2022-10-22T05:02:22.293Z,100507.72
2022-10-22T05:04:48.580Z,100507.47
2022-10-22T05:07:15.014Z,100506.03
2022-10-22T05:09:41.282Z,100503.13
2022-10-22T05:12:08.182Z,100510.41
2022-10-22T05:14:34.561Z,100520.31
2022-10-22T05:17:00.818Z,100528.41
2022-10-22T05:19:27.151Z,100523.84
2022-10-22T05:21:53.459Z,100533.53
2022-10-22T05:24:19.680Z,100544.28
2022-10-22T05:26:45.918Z,100533.78
2022-10-22T05:29:12.570Z,100535.63
2022-10-22T05:31:38.958Z,100543.69
2022-10-22T05:34:05.221Z,100542.06
2022-10-22T05:36:31.661Z,100542.66
2022-10-22T05:38:58.198Z,100533.78
2022-10-22T05:41:24.509Z,100538.31
2022-10-22T05:43:50.905Z,100538.31
2022-10-22T05:46:21.392Z,100542.91
2022-10-22T05:48:48.497Z,100547.22
2022-10-22T05:51:14.793Z,100552.81
2022-10-22T05:53:41.193Z,100544.75
2022-10-22T05:56:07.705Z,100534.84
2022-10-22T05:58:34.069Z,100539.16
2022-10-22T06:01:00.550Z,100542.06
2022-10-22T06:03:26.984Z,100538.59
2022-10-22T06:05:53.593Z,100541.28
2022-10-22T06:08:20.248Z,100537.53
2022-10-22T06:10:46.893Z,100545.59
2022-10-22T06:13:13.184Z,100558.22
2022-10-22T06:15:39.639Z,100554.72
2022-10-22T06:18:05.981Z,100557.41
2022-10-22T06:20:32.180Z,100561.97
2022-10-22T06:22:58.494Z,100561.97
2022-10-22T06:25:25.025Z,100566.28
2022-10-22T06:27:51.304Z,100567.34
2022-10-22T06:30:17.705Z,100570.03
2022-10-22T06:32:44.167Z,100578.09
2022-10-22T06:35:10.432Z,100577.88
2022-10-22T06:37:36.938Z,100582.66
2022-10-22T06:40:03.410Z,100585.34
2022-10-22T06:42:29.896Z,100582.41
2022-10-22T06:44:56.398Z,100586.16
2022-10-22T06:47:22.709Z,100580.78
2022-10-22T06:49:49.000Z,100579.16
2022-10-22T06:52:15.356Z,100588.03
2022-10-22T06:54:41.677Z,100576.47
2022-10-22T06:57:07.924Z,100583.47
2022-10-22T06:59:34.570Z,100581.63
2022-10-22T07:02:00.806Z,100582.66
2022-10-22T07:04:27.618Z,100578.09
2022-10-22T07:06:54.044Z,100579.97
2022-10-22T07:09:20.361Z,100581.00
2022-10-22T07:11:46.685Z,100581.00
2022-10-22T07:14:13.229Z,100582.66
2022-10-22T07:16:39.608Z,100586.16
2022-10-22T07:19:05.908Z,100583.47
2022-10-22T07:21:32.319Z,100591.53
2022-10-22T07:23:58.583Z,100591.53
2022-10-22T07:26:25.120Z,100598.78
2022-10-22T07:28:51.433Z,100595.28
2022-10-22T07:31:17.701Z,100609.53
2022-10-22T07:33:43.920Z,100615.75
2022-10-22T07:36:10.324Z,100625.69
2022-10-22T07:38:36.565Z,100624.06
2022-10-22T07:41:02.890Z,100632.13
2022-10-22T07:43:29.455Z,100635.63
2022-10-22T07:45:55.785Z,100641.03
2022-10-22T07:48:22.035Z,100633.97
2022-10-22T07:50:48.374Z,100643.72
2022-10-22T07:53:14.652Z,100649.88
2022-10-22T07:55:40.961Z,100651.78
2022-10-22T07:58:07.218Z,100660.66
2022-10-22T08:00:33.548Z,100652.81
2022-10-22T08:02:59.832Z,100649.09
2022-10-22T08:05:26.072Z,100656.31
2022-10-22T08:07:52.554Z,100657.16
2022-10-22T08:10:18.854Z,100658.41
2022-10-22T08:12:45.549Z,100659.00
2022-10-22T08:15:11.908Z,100665.22
2022-10-22T08:17:38.776Z,100660.66
2022-10-22T08:20:05.305Z,100655.50
2022-10-22T08:22:31.595Z,100645.56
2022-10-22T08:24:57.962Z,100650.13
2022-10-22T08:27:24.212Z,100660.06
2022-10-22T08:29:50.642Z,100660.88
2022-10-22T08:32:17.024Z,100664.59
2022-10-22T08:34:43.402Z,100659.44
2022-10-22T08:37:09.760Z,100662.97
2022-10-22T08:39:36.179Z,100669.41
2022-10-22T08:42:02.422Z,100681.22
2022-10-22T08:44:28.707Z,100677.47
2022-10-22T08:46:54.973Z,100691.72
2022-10-22T08:49:21.399Z,100693.59
2022-10-22T08:51:47.860Z,100696.28
2022-10-22T08:54:14.276Z,100700.03
2022-10-22T08:56:40.685Z,100688.22
2022-10-22T08:59:07.238Z,100691.13
2022-10-22T09:01:33.666Z,100696.28
2022-10-22T09:03:59.994Z,100693.81
2022-10-22T09:06:26.418Z,100695.47
2022-10-22T09:08:52.810Z,100693.59
2022-10-22T09:11:19.137Z,100696.28
2022-10-22T09:13:45.583Z,100696.06
2022-10-22T09:16:12.004Z,100696.06
2022-10-22T09:18:38.499Z,100693.59
2022-10-22T09:21:04.967Z,100707.84
2022-10-22T09:23:31.352Z,100696.84
2022-10-22T09:25:57.580Z,100707.03
2022-10-22T09:28:23.946Z,100704.34
2022-10-22T09:30:50.251Z,100707.03
2022-10-22T09:33:18.203Z,100698.97
2022-10-22T09:35:46.695Z,100703.28
2022-10-22T09:38:13.365Z,100713.84
2022-10-22T09:40:39.625Z,100713.00
2022-10-22T09:43:05.897Z,100722.13
2022-10-22T09:45:32.113Z,100718.88
2022-10-22T09:48:01.993Z,100710.31
2022-10-22T09:50:28.952Z,100704.34
2022-10-22T09:52:55.404Z,100709.72
2022-10-22T09:55:21.775Z,100701.44
2022-10-22T09:57:48.702Z,100708.91
2022-10-22T10:00:15.112Z,100714.28
2022-10-22T10:02:41.929Z,100706.00
2022-10-22T10:05:08.353Z,100697.72
2022-10-22T10:07:34.747Z,100705.78
2022-10-22T10:10:01.033Z,100708.47
2022-10-22T10:12:27.446Z,100709.72
2022-10-22T10:14:53.776Z,100711.38
2022-10-22T10:17:20.057Z,100711.97
2022-10-22T10:19:46.436Z,100718.38
2022-10-22T10:22:12.739Z,100721.72
2022-10-22T10:24:39.196Z,100722.13
2022-10-22T10:27:05.623Z,100722.13
2022-10-22T10:29:32.062Z,100717.81
2022-10-22T10:31:58.920Z,100712.19
2022-10-22T10:34:25.268Z,100709.06
2022-10-22T10:36:51.647Z,100715.03
2022-10-22T10:39:17.883Z,100707.09
2022-10-22T10:41:44.261Z,100702.16
2022-10-22T10:44:10.669Z,100704.84
2022-10-22T10:46:37.306Z,100718.91
2022-10-22T10:49:03.747Z,100719.13
2022-10-22T10:51:30.592Z,100722.78
2022-10-22T10:53:57.200Z,100717.50
2022-10-22T10:56:23.568Z,100726.03
2022-10-22T10:58:50.234Z,100720.22
2022-10-22T11:01:16.468Z,100720.69
2022-10-22T11:03:42.802Z,100718.91
2022-10-22T11:06:09.202Z,100725.56
2022-10-22T11:08:36.073Z,100722.97
2022-10-22T11:11:02.625Z,100733.00
2022-10-22T11:13:28.936Z,100728.03
2022-10-22T11:15:55.295Z,100737.28
2022-10-22T11:18:21.989Z,100730.69
2022-10-22T11:20:48.430Z,100726.69
2022-10-22T11:23:19.882Z,100732.44
2022-10-22T11:25:47.315Z,100738.97
2022-10-22T11:30:45.302Z,100739.31
2022-10-22T11:33:11.753Z,100734.97
2022-10-22T11:35:38.362Z,100734.91
2022-10-22T11:38:04.660Z,100735.22
2022-10-22T11:40:30.971Z,100735.06
2022-10-22T11:42:57.261Z,100733.28
2022-10-22T11:45:23.579Z,100732.56
2022-10-22T11:47:50.227Z,100741.00
2022-10-22T11:50:16.446Z,100740.88
2022-10-22T11:52:43.085Z,100733.84
2022-10-22T11:55:09.426Z,100740.31
2022-10-22T11:57:37.129Z,100740.00
2022-10-22T12:00:03.986Z,100741.84
2022-10-22T12:02:30.486Z,100740.78
2022-10-22T12:04:56.805Z,100745.63
2022-10-22T12:07:23.057Z,100743.16
2022-10-22T12:09:49.492Z,100741.84
2022-10-22T12:12:15.920Z,100743.56
2022-10-22T12:14:42.203Z,100744.50
2022-10-22T12:17:08.621Z,100740.88
2022-10-22T12:19:34.900Z,100730.16
2022-10-22T12:22:01.170Z,100730.25
2022-10-22T12:24:27.506Z,100725.56
2022-10-22T12:26:53.856Z,100733.53
2022-10-22T12:29:20.242Z,100733.28
2022-10-22T12:31:46.555Z,100738.78
2022-10-22T12:34:13.185Z,100739.56
2022-10-22T12:36:39.604Z,100742.88
2022-10-22T12:39:05.799Z,100745.06
2022-10-22T12:41:32.067Z,100746.03
2022-10-22T12:43:58.369Z,100754.06
2022-10-22T12:46:24.866Z,100748.25
2022-10-22T12:48:51.185Z,100741.03
2022-10-22T12:51:17.524Z,100736.31
2022-10-22T12:53:44.478Z,100735.91
2022-10-22T12:56:11.093Z,100741.13
2022-10-22T12:58:37.372Z,100740.41
2022-10-22T13:01:03.765Z,100751.03
2022-10-22T13:03:30.222Z,100743.81
2022-10-22T13:05:56.446Z,100747.09
2022-10-22T13:08:22.837Z,100748.25
2022-10-22T13:10:49.367Z,100741.28
2022-10-22T13:13:16.492Z,100742.66
2022-10-22T13:15:42.950Z,100749.69
2022-10-22T13:18:09.309Z,100746.31
2022-10-22T13:20:36.029Z,100752.00
2022-10-22T13:23:02.351Z,100750.88
2022-10-22T13:25:28.926Z,100753.47
2022-10-22T13:27:55.346Z,100752.41
2022-10-22T13:30:21.603Z,100763.31
2022-10-22T13:32:47.828Z,100765.75
2022-10-22T13:35:14.209Z,100755.84
2022-10-22T13:37:40.920Z,100756.94
2022-10-22T13:40:10.915Z,100759.22
2022-10-22T13:42:37.552Z,100759.03
2022-10-22T13:45:03.863Z,100756.16
2022-10-22T13:47:30.172Z,100759.22
2022-10-22T13:52:28.056Z,100763.66
2022-10-22T13:54:54.293Z,100761.44
2022-10-22T13:57:20.606Z,100752.31
2022-10-22T13:59:47.027Z,100760.47
2022-10-22T14:02:13.515Z,100761.69
2022-10-22T14:04:39.932Z,100761.75
2022-10-22T14:07:06.288Z,100765.34
2022-10-22T14:09:32.569Z,100749.66
2022-10-22T14:11:58.849Z,100759.47
2022-10-22T14:14:25.205Z,100763.56
2022-10-22T14:16:51.597Z,100760.63
2022-10-22T14:19:17.924Z,100764.75
2022-10-22T14:21:44.161Z,100771.78
2022-10-22T14:24:13.014Z,100773.41
2022-10-22T14:26:40.279Z,100771.81
2022-10-22T14:29:10.984Z,100777.00
2022-10-22T14:34:07.335Z,100775.41
2022-10-22T14:36:33.786Z,100773.75
2022-10-22T14:39:00.327Z,100773.84
2022-10-22T14:41:26.633Z,100780.03
2022-10-22T14:43:53.114Z,100779.28
2022-10-22T14:46:19.705Z,100784.22
2022-10-22T14:48:46.266Z,100783.63
2022-10-22T14:51:12.825Z,100786.03
2022-10-22T14:53:39.170Z,100794.41
2022-10-22T14:56:05.575Z,100787.63
2022-10-22T14:58:31.787Z,100794.91
2022-10-22T15:00:58.227Z,100802.47
2022-10-22T15:03:24.575Z,100802.22
2022-10-22T15:05:50.985Z,100798.72
2022-10-22T15:08:17.328Z,100797.41
2022-10-22T15:10:43.805Z,100790.91
2022-10-22T15:13:11.080Z,100790.66
2022-10-22T15:15:39.840Z,100791.75
2022-10-22T15:18:06.565Z,100796.06
2022-10-22T15:20:32.846Z,100797.16
2022-10-22T15:22:59.656Z,100792.88
2022-10-22T15:25:26.759Z,100802.38
2022-10-22T15:27:54.915Z,100805.56
2022-10-22T15:30:25.867Z,100809.41
2022-10-22T15:32:52.169Z,100806.69
2022-10-22T15:35:18.502Z,100821.31
2022-10-22T15:37:44.801Z,100823.22
2022-10-22T15:40:11.070Z,100814.28
2022-10-22T15:42:37.424Z,100820.50
2022-10-22T15:45:03.930Z,100818.59
2022-10-22T15:47:30.330Z,100815.91
2022-10-22T15:49:56.927Z,100823.13
2022-10-22T15:52:23.330Z,100825.00
2022-10-22T15:54:49.833Z,100827.94
2022-10-22T15:57:16.300Z,100833.41
2022-10-22T15:59:42.601Z,100833.72
2022-10-22T16:02:08.961Z,100839.38
2022-10-22T16:04:35.790Z,100841.84
2022-10-22T16:07:02.040Z,100844.28
2022-10-22T16:09:29.500Z,100846.44
2022-10-22T16:11:56.183Z,100852.66
2022-10-22T16:14:22.648Z,100850.78
2022-10-22T16:16:48.926Z,100848.56
2022-10-22T16:19:15.213Z,100858.31
2022-10-22T16:21:41.800Z,100847.50
2022-10-22T16:24:08.505Z,100860.22
2022-10-22T16:26:34.926Z,100851.03
2022-10-22T16:29:01.286Z,100855.63
2022-10-22T16:31:27.755Z,100859.88
2022-10-22T16:33:54.652Z,100866.69
2022-10-22T16:36:21.034Z,100868.84
2022-10-22T16:38:47.468Z,100863.63
2022-10-22T16:41:13.847Z,100868.78
2022-10-22T16:43:40.243Z,100869.59
2022-10-22T16:46:06.493Z,100874.44
2022-10-22T16:48:33.022Z,100866.81
2022-10-22T16:50:59.400Z,100870.59
2022-10-22T16:53:25.853Z,100876.84
2022-10-22T16:55:52.180Z,100873.56
2022-10-22T16:58:18.913Z,100880.28
2022-10-22T17:00:45.331Z,100877.81
2022-10-22T17:03:11.976Z,100883.75
2022-10-22T17:05:38.251Z,100884.25
2022-10-22T17:08:04.567Z,100881.47
2022-10-22T17:10:30.900Z,100884.41
2022-10-22T17:12:57.957Z,100893.59
2022-10-22T17:15:24.208Z,100889.47
2022-10-22T17:17:50.529Z,100895.41
2022-10-22T17:20:16.821Z,100898.66
2022-10-22T17:22:43.315Z,100898.41
2022-10-22T17:25:09.825Z,100898.66
2022-10-22T17:27:36.131Z,100907.59
2022-10-22T17:30:02.571Z,100914.56
2022-10-22T17:32:29.092Z,100917.84
2022-10-22T17:34:55.909Z,100914.81
2022-10-22T17:37:22.200Z,100920.97
2022-10-22T17:39:48.593Z,100919.97
2022-10-22T17:42:14.954Z,100924.56
2022-10-22T17:44:41.484Z,100923.84
2022-10-22T17:47:08.010Z,100924.97
2022-10-22T17:49:34.564Z,100932.00
2022-10-22T17:54:32.438Z,100933.41
2022-10-22T17:56:58.883Z,100942.94
2022-10-22T17:59:25.268Z,100944.81
2022-10-22T18:01:51.523Z,100939.16
2022-10-22T18:04:17.887Z,100954.09
2022-10-22T18:06:44.501Z,100954.09
2022-10-22T18:09:12.396Z,100948.69
2022-10-22T18:11:41.039Z,100951.38
2022-10-22T18:14:07.605Z,100950.56
2022-10-22T18:16:33.958Z,100954.09
2022-10-22T18:19:00.285Z,100949.00
2022-10-22T18:21:26.813Z,100949.78
2022-10-22T18:23:53.328Z,100953.56
2022-10-22T18:26:22.789Z,100953.31
2022-10-22T18:28:52.516Z,100956.63
2022-10-22T18:31:18.855Z,100952.25
2022-10-22T18:33:45.167Z,100954.47
2022-10-22T18:36:11.735Z,100955.53
2022-10-22T18:38:38.104Z,100948.75
2022-10-22T18:41:04.551Z,100950.13
2022-10-22T18:43:30.871Z,100954.72
2022-10-22T18:45:57.214Z,100964.75
2022-10-22T18:48:23.509Z,100950.63
2022-10-22T18:50:51.214Z,100955.47
2022-10-22T18:53:19.330Z,100964.63
2022-10-22T18:55:45.592Z,100956.81
2022-10-22T18:58:11.881Z,100958.34
2022-10-22T19:00:38.223Z,100961.88
2022-10-22T19:03:04.562Z,100956.47
2022-10-22T19:05:30.894Z,100958.34
2022-10-22T19:07:57.165Z,100959.16
2022-10-22T19:10:24.517Z,100956.66
2022-10-22T19:12:50.831Z,100970.19
2022-10-22T19:15:17.151Z,100962.91
2022-10-22T19:17:43.935Z,100973.72
2022-10-22T19:20:10.712Z,100973.13
2022-10-22T19:22:36.972Z,100977.75
2022-10-22T19:25:05.926Z,100974.22
2022-10-22T19:27:34.678Z,100975.84
2022-10-22T19:30:01.050Z,100975.03
2022-10-22T19:32:30.210Z,100974.22
2022-10-22T19:34:57.821Z,100983.16
2022-10-22T19:37:24.200Z,100982.09
2022-10-22T19:39:50.520Z,100986.44
2022-10-22T19:42:16.853Z,100994.78
2022-10-22T19:44:43.241Z,100991.03
2022-10-22T19:47:09.625Z,100995.84
2022-10-22T19:49:35.937Z,101001.25
2022-10-22T19:52:02.296Z,101001.25
2022-10-22T19:54:28.776Z,100997.16
2022-10-22T19:56:55.258Z,101002.59
2022-10-22T19:59:21.581Z,101004.47
2022-10-22T20:01:47.863Z,100999.06
2022-10-22T20:04:14.088Z,101011.78
2022-10-22T20:06:40.718Z,101010.94
2022-10-22T20:09:07.269Z,101011.19
2022-10-22T20:11:33.568Z,101005.22
2022-10-22T20:14:00.154Z,101012.50
2022-10-22T20:16:26.574Z,101014.63
2022-10-22T20:18:52.936Z,101020.06
2022-10-22T20:21:19.234Z,101017.59
2022-10-22T20:23:45.572Z,101028.41
2022-10-22T20:26:11.853Z,101026.78
2022-10-22T20:28:38.383Z,101023.47
2022-10-22T20:31:05.177Z,101029.13
2022-10-22T20:33:31.458Z,101031.50
2022-10-22T20:35:57.730Z,101040.44
2022-10-22T20:38:24.190Z,101036.91
2022-10-22T20:40:50.515Z,101038.81
2022-10-22T20:43:17.090Z,101041.53
2022-10-22T20:45:43.410Z,101043.41
2022-10-22T20:48:10.114Z,101037.16
2022-10-22T20:50:36.669Z,101037.41
2022-10-22T20:53:03.044Z,101034.13
2022-10-22T20:55:29.422Z,101040.38
2022-10-22T20:57:55.705Z,101042.47
2022-10-22T21:00:22.024Z,101043.56
2022-10-22T21:05:28.449Z,101050.03
2022-10-22T21:07:54.755Z,101051.91
2022-10-22T21:10:21.126Z,101052.38
2022-10-22T21:15:23.457Z,101053.47
2022-10-22T21:17:49.819Z,101069.69
2022-10-22T21:20:17.862Z,101059.94
2022-10-22T21:22:46.169Z,101063.19
2022-10-22T21:25:13.338Z,101060.19
2022-10-22T21:27:39.785Z,101058.31
2022-10-22T21:30:06.005Z,101058.53
2022-10-22T21:32:32.501Z,101062.03
2022-10-22T21:34:58.823Z,101067.22
2022-10-22T21:37:25.446Z,101064.75
2022-10-22T21:39:51.722Z,101068.28
2022-10-22T21:42:18.119Z,101068.03
2022-10-22T21:44:44.529Z,101068.28
2022-10-22T21:47:10.831Z,101072.84
2022-10-22T21:49:37.380Z,101074.16
2022-10-22T21:52:03.800Z,101077.94
2022-10-22T21:54:30.245Z,101080.88
2022-10-22T21:56:56.773Z,101074.69
2022-10-22T21:59:23.374Z,101080.56
2022-10-22T22:01:49.667Z,101084.34
2022-10-22T22:04:16.340Z,101088.06
2022-10-22T22:06:42.685Z,101092.44
2022-10-22T22:09:09.066Z,101083.75
2022-10-22T22:11:35.444Z,101092.09
2022-10-22T22:14:01.898Z,101090.44
2022-10-22T22:16:29.714Z,101087.97
2022-10-22T22:18:56.107Z,101089.06
2022-10-22T22:21:22.469Z,101095.53
2022-10-22T22:23:48.728Z,101094.69
2022-10-22T22:26:15.120Z,101097.88
2022-10-22T22:28:41.582Z,101095.44
2022-10-22T22:31:07.900Z,101098.38
2022-10-22T22:33:34.386Z,101100.25
2022-10-22T22:36:00.876Z,101089.44
2022-10-22T22:38:27.227Z,101096.16
2022-10-22T22:40:53.585Z,101090.19
2022-10-22T22:43:19.973Z,101092.03
2022-10-22T22:45:46.785Z,101095.81
2022-10-22T22:48:13.153Z,101088.75
2022-10-22T22:50:39.482Z,101088.19
2022-10-22T22:53:05.936Z,101092.75
2022-10-22T22:55:32.220Z,101091.13
2022-10-22T22:57:58.539Z,101089.25
2022-10-22T23:00:25.019Z,101081.84
2022-10-22T23:02:51.305Z,101080.22
2022-10-22T23:05:17.983Z,101075.88
2022-10-22T23:07:44.236Z,101075.88
2022-10-22T23:10:10.601Z,101077.16
2022-10-22T23:12:37.042Z,101079.84
2022-10-22T23:15:03.516Z,101078.19
2022-10-22T23:17:30.082Z,101083.81
2022-10-22T23:19:56.408Z,101079.50
2022-10-22T23:22:22.834Z,101077.03
2022-10-22T23:24:49.178Z,101081.88
2022-10-22T23:27:15.869Z,101082.94
2022-10-22T23:29:42.207Z,101084.78
2022-10-22T23:32:08.716Z,101081.25
2022-10-22T23:34:35.072Z,101085.03
2022-10-22T23:37:01.367Z,101088.81
2022-10-22T23:39:27.815Z,101089.03
2022-10-22T23:41:54.245Z,101080.38
2022-10-22T23:44:20.637Z,101083.88
2022-10-22T23:46:47.050Z,101074.97
2022-10-22T23:49:13.474Z,101087.06
2022-10-22T23:51:39.702Z,101085.41
2022-10-22T23:54:06.049Z,101084.59
2022-10-22T23:56:32.416Z,101083.53
2022-10-22T23:58:58.841Z,101075.91
